Time;durP1;ratioP1;P1;durP2;ratioP2;P2;SDS_P1;SDS_P2;PMS_P1;PMS_P2;Temp;Humidity;BMP_temperature;BMP_pressure;BME280_temperature;BME280_humidity;BME280_pressure;Samples;Min_cycle;Max_cycle;Signal;HPM_P1;HPM_P2
2022/01/07 00:00:52;;;;;;;30.90;9.80;;;;;;;-6.76;92.09;99857.40;103903;1300;24226;-29
2022/01/07 00:03:19;;;;;;;13.60;3.60;;;;;;;-6.77;92.52;99866.52;103723;1300;24299;-28
2022/01/07 00:05:44;;;;;;;12.80;3.80;;;;;;;-6.78;92.50;99870.56;103729;1300;24352;-28
2022/01/07 00:08:12;;;;;;;11.40;3.00;;;;;;;-6.79;93.15;99869.42;103862;1300;24207;-29
2022/01/07 00:10:38;;;;;;;9.40;3.60;;;;;;;-6.79;93.13;99874.60;103839;1300;23759;-25
2022/01/07 00:13:04;;;;;;;9.20;2.40;;;;;;;-6.71;93.75;99869.20;103909;1300;22560;-25
2022/01/07 00:15:29;;;;;;;6.30;2.90;;;;;;;-6.67;94.01;99863.77;103733;1300;22520;-25
2022/01/07 00:17:55;;;;;;;12.80;3.20;;;;;;;-6.66;94.48;99865.98;103722;1300;22518;-25
2022/01/07 00:20:21;;;;;;;7.20;2.00;;;;;;;-6.67;94.22;99866.21;103655;1300;24269;-26
2022/01/07 00:22:47;;;;;;;9.60;3.30;;;;;;;-6.64;94.61;99860.29;103604;1300;24395;-27
2022/01/07 00:25:13;;;;;;;15.00;3.80;;;;;;;-6.59;94.47;99854.31;103535;1300;24275;-26
2022/01/07 00:27:39;;;;;;;15.90;5.30;;;;;;;-6.59;94.28;99854.96;103563;1300;25403;-30
2022/01/07 00:30:06;;;;;;;9.90;3.50;;;;;;;-6.58;93.99;99859.09;103613;1300;24456;-30
2022/01/07 00:32:32;;;;;;;5.00;2.80;;;;;;;-6.59;93.83;99861.93;103575;1300;24220;-25
2022/01/07 00:34:58;;;;;;;14.10;3.40;;;;;;;-6.60;94.05;99860.08;103463;1300;23215;-28
2022/01/07 00:37:24;;;;;;;7.50;2.70;;;;;;;-6.64;93.79;99858.88;103585;1300;24228;-30
2022/01/07 00:39:50;;;;;;;9.40;3.60;;;;;;;-6.67;94.36;99855.56;103579;1300;24180;-28
2022/01/07 00:42:16;;;;;;;6.70;2.90;;;;;;;-6.66;94.55;99855.69;103522;1300;24232;-25
2022/01/07 00:44:42;;;;;;;10.60;4.50;;;;;;;-6.67;94.82;99855.23;103548;1300;24300;-28
2022/01/07 00:47:08;;;;;;;30.90;5.30;;;;;;;-6.65;94.72;99857.39;103543;1300;24197;-25
2022/01/07 00:49:34;;;;;;;14.60;3.90;;;;;;;-6.62;95.09;99856.89;103510;1300;24320;-28
2022/01/07 00:52:01;;;;;;;4.60;3.00;;;;;;;-6.62;94.92;99857.06;103565;1300;22561;-25
2022/01/07 00:54:27;;;;;;;18.60;4.40;;;;;;;-6.63;94.98;99855.53;103567;1300;24286;-25
2022/01/07 00:56:52;;;;;;;16.00;4.70;;;;;;;-6.67;95.27;99856.27;103531;1300;24046;-28
2022/01/07 00:59:18;;;;;;;15.30;4.40;;;;;;;-6.67;95.18;99849.31;103543;1300;22519;-25
2022/01/07 01:01:45;;;;;;;12.50;4.70;;;;;;;-6.73;94.96;99849.95;103646;1300;24199;-24
2022/01/07 01:04:11;;;;;;;15.20;4.00;;;;;;;-6.73;95.28;99847.69;103545;1300;24342;-25
2022/01/07 01:06:40;;;;;;;21.20;4.10;;;;;;;-6.71;95.25;99851.60;103575;1300;22847;-30
2022/01/07 01:09:08;;;;;;;7.90;3.30;;;;;;;-6.69;95.49;99853.73;103557;1300;22864;-28
2022/01/07 01:11:34;;;;;;;14.30;4.40;;;;;;;-6.66;95.65;99852.55;103447;1301;24281;-28
2022/01/07 01:14:01;;;;;;;45.60;8.30;;;;;;;-6.60;95.69;99855.05;103514;1300;24306;-24
2022/01/07 01:16:26;;;;;;;13.50;4.40;;;;;;;-6.60;95.82;99854.54;103524;1300;24213;-28
2022/01/07 01:18:52;;;;;;;13.40;4.90;;;;;;;-6.60;95.88;99856.28;103553;1300;24223;-28
2022/01/07 01:21:18;;;;;;;12.40;4.80;;;;;;;-6.60;96.09;99855.20;103560;1300;24198;-28
2022/01/07 01:23:45;;;;;;;24.00;5.30;;;;;;;-6.61;96.51;99853.34;103582;1300;24304;-27
2022/01/07 01:26:12;;;;;;;17.60;6.10;;;;;;;-6.58;96.33;99854.42;103547;1300;24289;-29
2022/01/07 01:28:38;;;;;;;17.60;4.90;;;;;;;-6.57;96.48;99851.06;103512;1300;22638;-28
2022/01/07 01:31:05;;;;;;;22.20;4.80;;;;;;;-6.51;96.38;99850.24;103523;1300;24223;-29
2022/01/07 01:33:31;;;;;;;11.10;3.80;;;;;;;-6.44;96.39;99851.63;103563;1300;24252;-30
2022/01/07 01:35:56;;;;;;;6.60;3.50;;;;;;;-6.41;96.67;99851.83;103522;1300;24237;-29
2022/01/07 01:38:22;;;;;;;19.70;4.80;;;;;;;-6.38;96.82;99849.59;103541;1300;24285;-26
2022/01/07 01:40:48;;;;;;;12.10;4.60;;;;;;;-6.33;96.95;99847.23;103687;1300;24237;-26
2022/01/07 01:43:14;;;;;;;19.50;4.80;;;;;;;-6.34;96.82;99848.30;103756;1300;24240;-26
2022/01/07 01:45:40;;;;;;;22.80;4.70;;;;;;;-6.36;97.07;99842.16;103791;1300;22505;-25
2022/01/07 01:48:06;;;;;;;14.70;5.00;;;;;;;-6.35;97.17;99849.03;103819;1300;24284;-24
2022/01/07 01:50:32;;;;;;;22.90;6.20;;;;;;;-6.34;97.40;99847.63;103847;1300;23981;-31
2022/01/07 01:52:58;;;;;;;25.20;5.60;;;;;;;-6.32;97.58;99848.92;103830;1300;22753;-27
2022/01/07 01:55:25;;;;;;;14.70;4.20;;;;;;;-6.31;97.57;99845.55;103827;1299;24236;-30
2022/01/07 01:57:52;;;;;;;17.00;5.80;;;;;;;-6.28;97.61;99845.41;103561;1300;24263;-24
2022/01/07 02:00:19;;;;;;;16.50;5.90;;;;;;;-6.25;97.58;99841.26;103571;1300;24173;-28
2022/01/07 02:02:46;;;;;;;11.50;5.10;;;;;;;-6.22;97.43;99841.42;103596;1300;24195;-28
2022/01/07 02:05:12;;;;;;;10.60;4.90;;;;;;;-6.20;97.48;99840.80;103557;1300;24240;-25
2022/01/07 02:07:40;;;;;;;13.70;5.20;;;;;;;-6.19;97.40;99836.73;103575;1300;23008;-28
2022/01/07 02:10:09;;;;;;;16.50;5.10;;;;;;;-6.18;97.38;99835.67;103586;1299;24223;-29
2022/01/07 02:12:35;;;;;;;19.30;5.60;;;;;;;-6.22;97.73;99836.39;103595;1300;24306;-25
2022/01/07 02:15:01;;;;;;;20.00;5.80;;;;;;;-6.21;97.71;99839.79;103615;1300;24243;-24
2022/01/07 02:17:27;;;;;;;23.20;6.80;;;;;;;-6.22;97.66;99841.44;103559;1300;24221;-28
2022/01/07 02:19:54;;;;;;;14.60;5.10;;;;;;;-6.19;97.62;99841.27;103600;1300;24602;-30
2022/01/07 02:22:20;;;;;;;13.30;4.40;;;;;;;-6.19;97.98;99839.35;103868;1300;24176;-26
2022/01/07 02:24:47;;;;;;;14.60;4.50;;;;;;;-6.19;97.78;99837.98;103859;1300;24327;-28
2022/01/07 02:27:13;;;;;;;15.60;6.50;;;;;;;-6.18;97.85;99838.27;103798;1300;24285;-27
2022/01/07 02:29:39;;;;;;;15.20;5.40;;;;;;;-6.17;97.94;99841.17;103818;1300;24330;-28
2022/01/07 02:32:06;;;;;;;9.60;4.60;;;;;;;-6.15;97.83;99838.64;104006;1300;23263;-28
2022/01/07 02:34:32;;;;;;;15.50;5.80;;;;;;;-6.14;97.81;99842.07;103723;1300;24438;-25
2022/01/07 02:36:58;;;;;;;17.70;5.70;;;;;;;-6.15;97.33;99842.80;103594;1300;24338;-28
2022/01/07 02:39:23;;;;;;;14.80;5.10;;;;;;;-6.18;97.26;99842.98;103564;1300;22534;-28
2022/01/07 02:41:49;;;;;;;24.80;7.30;;;;;;;-6.21;97.22;99843.10;103606;1301;24254;-29
2022/01/07 02:44:15;;;;;;;23.60;5.10;;;;;;;-6.18;97.44;99837.58;103535;1300;24359;-28
2022/01/07 02:46:41;;;;;;;17.80;6.30;;;;;;;-6.17;96.97;99840.46;103633;1300;24354;-28
2022/01/07 02:49:09;;;;;;;14.90;6.90;;;;;;;-6.17;96.62;99838.05;103683;1301;24267;-26
2022/01/07 02:51:35;;;;;;;12.40;5.60;;;;;;;-6.12;96.61;99837.27;103753;1300;23373;-28
2022/01/07 02:54:01;;;;;;;14.50;5.30;;;;;;;-6.10;96.49;99840.81;103715;1300;24275;-28
2022/01/07 02:56:27;;;;;;;27.10;7.60;;;;;;;-6.05;96.56;99839.55;103769;1300;22520;-28
2022/01/07 02:58:53;;;;;;;18.10;6.20;;;;;;;-6.05;96.35;99840.52;103678;1300;24307;-25
2022/01/07 03:01:19;;;;;;;7.40;3.50;;;;;;;-6.01;96.09;99841.05;103829;1300;24188;-28
2022/01/07 03:03:45;;;;;;;15.30;4.50;;;;;;;-5.99;95.73;99839.04;103958;1300;22839;-24
2022/01/07 03:06:11;;;;;;;12.10;5.60;;;;;;;-6.01;95.51;99835.98;103692;1300;23834;-27
2022/01/07 03:08:37;;;;;;;19.80;5.40;;;;;;;-5.96;95.42;99833.63;103703;1300;24196;-24
2022/01/07 03:11:04;;;;;;;21.00;5.80;;;;;;;-5.97;95.33;99833.66;103492;1302;24171;-25
2022/01/07 03:13:29;;;;;;;8.30;4.30;;;;;;;-5.98;95.22;99829.36;103517;1300;24201;-28
2022/01/07 03:15:55;;;;;;;19.30;5.10;;;;;;;-5.96;94.84;99829.98;103610;1300;24348;-25
2022/01/07 03:18:21;;;;;;;16.60;4.20;;;;;;;-5.96;94.65;99827.73;103560;1300;22641;-27
2022/01/07 03:20:47;;;;;;;17.00;5.90;;;;;;;-5.99;94.51;99827.67;103750;1300;24211;-28
2022/01/07 03:23:14;;;;;;;13.50;4.30;;;;;;;-5.98;94.35;99826.23;103520;1300;25115;-29
2022/01/07 03:25:40;;;;;;;8.60;3.40;;;;;;;-6.01;94.42;99827.41;103592;1300;24263;-29
2022/01/07 03:28:08;;;;;;;11.40;3.80;;;;;;;-5.97;94.24;99830.02;103530;1300;24275;-25
2022/01/07 03:30:34;;;;;;;21.80;5.00;;;;;;;-6.02;94.19;99830.13;103523;1300;22804;-29
2022/01/07 03:32:59;;;;;;;16.80;5.50;;;;;;;-6.07;94.46;99827.77;103618;1300;24213;-29
2022/01/07 03:35:25;;;;;;;12.30;4.40;;;;;;;-6.05;94.16;99830.95;103612;1300;24247;-29
2022/01/07 03:37:51;;;;;;;18.50;5.60;;;;;;;-6.02;93.89;99826.99;103565;1300;24212;-29
2022/01/07 03:40:19;;;;;;;12.30;4.10;;;;;;;-6.05;93.42;99826.95;103495;1300;24227;-25
2022/01/07 03:42:46;;;;;;;15.90;4.40;;;;;;;-6.05;93.70;99827.83;103634;1300;24241;-25
2022/01/07 03:45:12;;;;;;;12.00;4.40;;;;;;;-6.05;93.28;99823.64;103568;1300;24236;-28
2022/01/07 03:47:38;;;;;;;14.20;5.40;;;;;;;-5.98;92.96;99821.91;103568;1300;24307;-26
2022/01/07 03:50:06;;;;;;;15.00;4.80;;;;;;;-5.98;92.48;99819.94;103281;1302;24233;-25
2022/01/07 03:52:33;;;;;;;14.00;4.20;;;;;;;-5.92;92.25;99823.59;103643;1300;24176;-27
2022/01/07 03:54:58;;;;;;;9.80;4.60;;;;;;;-5.95;92.21;99823.79;103585;1300;24198;-31
2022/01/07 03:57:24;;;;;;;14.40;4.80;;;;;;;-5.93;92.14;99825.27;103605;1300;24303;-26
2022/01/07 03:59:50;;;;;;;14.10;4.30;;;;;;;-5.91;91.98;99824.11;103599;1300;24196;-26
2022/01/07 04:02:17;;;;;;;12.70;3.90;;;;;;;-5.90;91.74;99822.27;103714;1300;22594;-26
2022/01/07 04:04:44;;;;;;;19.30;5.30;;;;;;;-5.88;91.54;99819.56;103629;1300;24222;-29
2022/01/07 04:07:10;;;;;;;16.00;5.90;;;;;;;-5.81;91.35;99818.83;103796;1300;23881;-25
2022/01/07 04:09:36;;;;;;;9.30;3.80;;;;;;;-5.82;91.02;99820.47;103119;1301;485920;-29
2022/01/07 04:12:03;;;;;;;12.00;4.50;;;;;;;-5.85;91.24;99814.84;103632;1300;22785;-29
2022/01/07 04:14:29;;;;;;;6.80;2.60;;;;;;;-5.86;91.16;99816.13;103492;1301;24321;-29
2022/01/07 04:16:55;;;;;;;10.70;3.20;;;;;;;-5.87;91.35;99814.43;103622;1302;24637;-26
2022/01/07 04:19:22;;;;;;;12.90;3.50;;;;;;;-5.84;91.40;99814.30;103635;1300;24625;-29
2022/01/07 04:21:49;;;;;;;8.20;3.10;;;;;;;-5.85;91.55;99816.61;103545;1302;24621;-29
2022/01/07 04:24:15;;;;;;;14.00;5.60;;;;;;;-5.88;91.58;99810.16;103613;1302;23231;-26
2022/01/07 04:26:41;;;;;;;18.20;4.80;;;;;;;-5.89;91.74;99817.16;103622;1300;25174;-29
2022/01/07 04:29:07;;;;;;;9.30;3.10;;;;;;;-5.88;91.81;99812.37;103662;1300;22886;-28
2022/01/07 04:31:33;;;;;;;6.20;2.70;;;;;;;-5.87;91.83;99810.45;103596;1300;22768;-30
2022/01/07 04:33:59;;;;;;;12.00;2.90;;;;;;;-5.88;91.69;99808.05;103604;1300;24342;-26
2022/01/07 04:36:25;;;;;;;9.20;3.30;;;;;;;-5.88;91.82;99801.10;103501;1300;24186;-29
2022/01/07 04:38:51;;;;;;;9.30;2.50;;;;;;;-5.83;91.40;99803.10;103519;1300;24430;-26
2022/01/07 04:41:17;;;;;;;7.60;3.00;;;;;;;-5.85;91.43;99800.38;103555;1300;24335;-30
2022/01/07 04:43:43;;;;;;;13.80;2.80;;;;;;;-5.87;91.04;99805.02;103539;1300;24218;-29
2022/01/07 04:46:09;;;;;;;11.30;3.70;;;;;;;-5.88;90.79;99803.71;103629;1300;24346;-25
2022/01/07 04:48:35;;;;;;;4.90;3.00;;;;;;;-5.86;90.26;99809.50;103597;1301;24275;-28
2022/01/07 04:51:01;;;;;;;13.50;3.20;;;;;;;-5.83;89.20;99810.42;103583;1300;24353;-25
2022/01/07 04:53:27;;;;;;;8.50;3.20;;;;;;;-5.80;88.34;99812.85;103619;1300;22509;-24
2022/01/07 04:55:53;;;;;;;16.70;3.50;;;;;;;-5.76;87.52;99810.55;103699;1300;24361;-25
2022/01/07 04:58:20;;;;;;;8.90;2.30;;;;;;;-5.74;86.94;99812.20;103663;1301;22812;-24
2022/01/07 05:00:46;;;;;;;15.00;4.00;;;;;;;-5.72;86.10;99809.45;103542;1301;23885;-31
2022/01/07 05:03:12;;;;;;;9.00;4.70;;;;;;;-5.76;86.03;99807.92;103534;1300;24225;-26
2022/01/07 05:05:38;;;;;;;9.50;3.20;;;;;;;-5.72;86.12;99802.31;103805;1300;24392;-25
2022/01/07 05:08:05;;;;;;;9.00;2.70;;;;;;;-5.67;85.36;99803.23;103687;1300;24256;-25
2022/01/07 05:10:31;;;;;;;7.20;3.10;;;;;;;-5.67;85.01;99806.53;103729;1300;24210;-28
2022/01/07 05:12:58;;;;;;;13.90;3.90;;;;;;;-5.70;85.33;99807.41;103584;1300;24304;-25
2022/01/07 05:15:23;;;;;;;8.50;3.00;;;;;;;-5.68;85.42;99805.21;103627;1300;24254;-25
2022/01/07 05:17:50;;;;;;;23.80;4.10;;;;;;;-5.62;84.89;99805.56;103578;1301;22760;-31
2022/01/07 05:20:16;;;;;;;7.50;3.00;;;;;;;-5.60;84.91;99809.17;103548;1300;24283;-25
2022/01/07 05:22:43;;;;;;;5.80;2.40;;;;;;;-5.64;84.83;99812.31;103631;1300;22508;-28
2022/01/07 05:25:10;;;;;;;16.00;4.30;;;;;;;-5.70;85.15;99803.42;103606;1300;24204;-26
2022/01/07 05:27:36;;;;;;;9.10;3.80;;;;;;;-5.59;84.56;99802.50;103657;1300;24186;-25
2022/01/07 05:30:03;;;;;;;16.70;5.70;;;;;;;-5.64;84.34;99802.56;103889;1301;24291;-29
2022/01/07 05:32:32;;;;;;;14.50;4.70;;;;;;;-5.68;84.41;99803.96;103778;1300;24202;-29
2022/01/07 05:34:58;;;;;;;20.20;5.40;;;;;;;-5.68;84.87;99797.23;103996;1300;24222;-28
2022/01/07 05:37:24;;;;;;;35.00;8.30;;;;;;;-5.66;84.56;99797.65;103877;1300;22785;-28
2022/01/07 05:39:50;;;;;;;15.70;5.90;;;;;;;-5.66;84.41;99798.15;103816;1300;24211;-25
2022/01/07 05:42:16;;;;;;;20.80;5.80;;;;;;;-5.75;84.32;99795.70;103789;1300;22505;-24
2022/01/07 05:44:42;;;;;;;25.40;8.10;;;;;;;-5.75;84.02;99792.72;103630;1300;24240;-27
2022/01/07 05:47:08;;;;;;;12.30;3.90;;;;;;;-5.76;84.75;99791.52;103696;1300;22730;-29
2022/01/07 05:49:33;;;;;;;12.20;4.40;;;;;;;-5.74;84.73;99782.38;103689;1300;24174;-28
2022/01/07 05:51:59;;;;;;;6.40;2.60;;;;;;;-5.76;84.68;99782.11;103774;1300;24417;-25
2022/01/07 05:54:25;;;;;;;14.10;3.40;;;;;;;-5.85;84.73;99784.34;103946;1300;24254;-24
2022/01/07 05:56:51;;;;;;;18.60;5.80;;;;;;;-5.81;84.82;99776.29;103643;1300;24208;-25
2022/01/07 05:59:17;;;;;;;11.10;4.90;;;;;;;-5.88;84.83;99774.89;103558;1300;24266;-25
2022/01/07 06:01:53;;;;;;;28.40;7.10;;;;;;;-5.92;85.35;99775.85;103737;1299;24329;-30
2022/01/07 06:04:19;;;;;;;18.10;7.40;;;;;;;-5.93;85.43;99778.02;103777;1300;24460;-25
2022/01/07 06:06:45;;;;;;;27.30;8.60;;;;;;;-5.91;85.35;99776.46;103722;1300;24318;-25
2022/01/07 06:09:11;;;;;;;35.30;9.30;;;;;;;-5.90;85.26;99771.38;103548;1300;24252;-26
2022/01/07 06:11:37;;;;;;;30.50;9.70;;;;;;;-5.90;85.23;99764.05;103539;1300;24343;-25
2022/01/07 06:14:04;;;;;;;19.10;4.10;;;;;;;-5.95;85.38;99767.65;103566;1300;24252;-25
2022/01/07 06:16:30;;;;;;;23.90;8.10;;;;;;;-5.92;85.05;99768.17;103544;1300;24315;-28
2022/01/07 06:18:58;;;;;;;13.70;5.30;;;;;;;-5.96;84.88;99773.80;103595;1300;24369;-27
2022/01/07 06:21:24;;;;;;;34.10;6.70;;;;;;;-5.98;84.93;99781.22;103540;1300;24955;-26
2022/01/07 06:23:49;;;;;;;18.60;5.50;;;;;;;-5.92;85.42;99778.80;103627;1300;24322;-26
2022/01/07 06:26:16;;;;;;;12.60;3.70;;;;;;;-5.93;85.35;99779.59;103562;1300;24286;-25
2022/01/07 06:28:42;;;;;;;7.90;3.50;;;;;;;-5.91;85.21;99776.63;103544;1300;24398;-24
2022/01/07 06:31:09;;;;;;;19.20;5.00;;;;;;;-5.88;85.32;99772.99;103603;1300;24255;-28
2022/01/07 06:33:34;;;;;;;18.50;3.60;;;;;;;-5.90;85.66;99771.35;103599;1300;24176;-29
2022/01/07 06:36:00;;;;;;;16.80;4.20;;;;;;;-5.86;85.26;99766.80;103574;1300;22517;-25
2022/01/07 06:38:26;;;;;;;13.60;5.70;;;;;;;-5.89;85.87;99762.42;103579;1300;24243;-28
2022/01/07 06:40:52;;;;;;;16.00;6.50;;;;;;;-5.82;86.21;99758.72;103575;1300;24318;-29
2022/01/07 06:43:18;;;;;;;14.20;4.90;;;;;;;-5.80;86.32;99755.83;103558;1300;24216;-24
2022/01/07 06:45:43;;;;;;;22.00;5.20;;;;;;;-5.74;86.19;99758.95;103551;1300;24330;-29
2022/01/07 06:48:09;;;;;;;18.40;6.00;;;;;;;-5.70;86.51;99764.17;103464;1300;24178;-29
2022/01/07 06:50:35;;;;;;;9.30;3.90;;;;;;;-5.68;86.54;99767.53;103592;1299;24327;-29
2022/01/07 06:53:01;;;;;;;11.90;5.70;;;;;;;-5.68;87.00;99766.67;103580;1300;24185;-29
2022/01/07 06:55:28;;;;;;;19.00;4.60;;;;;;;-5.62;86.63;99765.48;103689;1300;24189;-28
2022/01/07 06:57:54;;;;;;;12.30;3.70;;;;;;;-5.47;85.46;99770.58;103576;1300;23845;-29
2022/01/07 07:00:19;;;;;;;19.20;4.10;;;;;;;-5.44;85.28;99774.24;103613;1300;24461;-29
2022/01/07 07:02:45;;;;;;;10.50;3.10;;;;;;;-5.45;84.62;99770.30;103539;1300;24221;-26
2022/01/07 07:05:11;;;;;;;11.50;4.60;;;;;;;-5.41;84.87;99770.56;103457;1303;22498;-26
2022/01/07 07:07:37;;;;;;;19.20;3.80;;;;;;;-5.40;84.83;99777.50;103542;1300;24243;-30
2022/01/07 07:10:03;;;;;;;7.70;3.00;;;;;;;-5.31;83.88;99775.27;103591;1300;22937;-28
2022/01/07 07:12:30;;;;;;;7.10;3.20;;;;;;;-5.26;83.24;99775.14;103539;1300;24502;-29
2022/01/07 07:14:56;;;;;;;17.80;4.50;;;;;;;-5.19;82.67;99779.46;103548;1300;22613;-25
2022/01/07 07:17:23;;;;;;;12.90;4.00;;;;;;;-5.21;82.17;99773.83;103549;1300;24185;-28
2022/01/07 07:19:49;;;;;;;10.00;3.30;;;;;;;-5.11;81.88;99769.43;103580;1302;24294;-27
2022/01/07 07:22:15;;;;;;;10.40;4.50;;;;;;;-5.12;82.15;99769.29;103564;1300;24308;-26
2022/01/07 07:24:41;;;;;;;13.30;5.90;;;;;;;-5.17;82.28;99768.87;103606;1299;24208;-26
2022/01/07 07:27:07;;;;;;;17.00;4.70;;;;;;;-5.27;82.82;99768.91;103544;1300;24328;-29
2022/01/07 07:29:33;;;;;;;18.40;6.40;;;;;;;-5.30;83.77;99772.73;103535;1300;24227;-28
2022/01/07 07:32:03;;;;;;;20.60;4.70;;;;;;;-5.29;83.69;99776.15;103505;1300;24163;-26
2022/01/07 07:36:58;;;;;;;16.40;4.10;;;;;;;-4.99;81.70;99773.95;103569;1300;22881;-29
2022/01/07 07:39:24;;;;;;;12.10;4.90;;;;;;;-4.96;81.65;99770.27;103601;1300;24195;-26
2022/01/07 07:41:50;;;;;;;11.30;4.40;;;;;;;-4.84;81.42;99765.40;103582;1300;24227;-29
2022/01/07 07:44:16;;;;;;;8.60;3.60;;;;;;;-4.90;81.22;99755.75;103492;1300;24342;-27
2022/01/07 07:46:42;;;;;;;8.30;3.20;;;;;;;-4.91;81.25;99753.04;103490;1300;24274;-25
2022/01/07 07:49:08;;;;;;;12.50;3.50;;;;;;;-4.96;81.25;99752.60;103572;1300;24337;-30
2022/01/07 07:51:34;;;;;;;26.80;7.50;;;;;;;-4.96;81.72;99750.38;103567;1300;24350;-29
2022/01/07 07:54:00;;;;;;;14.10;3.20;;;;;;;-4.91;81.83;99749.37;103521;1301;24194;-30
2022/01/07 07:56:26;;;;;;;15.20;3.40;;;;;;;-4.87;81.70;99744.11;103552;1300;24292;-30
2022/01/07 07:58:52;;;;;;;33.60;9.30;;;;;;;-4.78;81.85;99744.74;103653;1300;24460;-25
2022/01/07 08:01:18;;;;;;;16.20;5.50;;;;;;;-4.67;82.08;99749.39;103547;1300;24178;-26
2022/01/07 08:03:45;;;;;;;9.00;3.10;;;;;;;-4.61;80.79;99749.71;103650;1300;22786;-25
2022/01/07 08:06:11;;;;;;;36.70;7.00;;;;;;;-4.57;80.71;99749.82;103597;1300;24315;-30
2022/01/07 08:08:37;;;;;;;16.80;3.70;;;;;;;-4.43;79.76;99753.84;103543;1302;24221;-30
2022/01/07 08:11:06;;;;;;;13.40;3.30;;;;;;;-4.33;78.34;99746.81;103588;1300;22614;-28
2022/01/07 08:15:58;;;;;;;8.50;4.30;;;;;;;-4.28;79.11;99748.05;103546;1300;24222;-30
2022/01/07 08:16:19;;;;;;;6.10;3.20;;;;;;;-4.25;79.00;99746.28;103499;1300;24227;-27
2022/01/07 08:18:48;;;;;;;8.70;3.00;;;;;;;-4.17;78.46;99743.88;103604;1300;24174;-25
2022/01/07 08:21:14;;;;;;;8.70;4.10;;;;;;;-3.94;77.55;99743.62;103594;1300;22509;-29
2022/01/07 08:23:40;;;;;;;20.90;4.10;;;;;;;-3.81;77.59;99741.44;103623;1300;24239;-27
2022/01/07 08:26:09;;;;;;;12.70;3.90;;;;;;;-3.65;77.01;99745.48;103524;1300;24229;-26
2022/01/07 08:28:40;;;;;;;13.80;4.10;;;;;;;-3.63;76.91;99742.02;103326;1302;22697;-26
2022/01/07 08:36:02;;;;;;;16.80;4.70;;;;;;;-3.15;76.45;99728.45;103548;1300;26269;-30
2022/01/07 08:38:28;;;;;;;6.50;3.40;;;;;;;-2.96;76.33;99724.02;103492;1301;24310;-29
2022/01/07 08:40:54;;;;;;;23.00;4.80;;;;;;;-2.88;76.70;99727.35;103539;1300;24174;-25
2022/01/07 08:43:20;;;;;;;14.70;5.30;;;;;;;-2.48;73.98;99733.88;103537;1300;24331;-29
2022/01/07 08:45:46;;;;;;;15.40;6.50;;;;;;;-2.27;74.43;99733.85;103522;1300;24175;-25
2022/01/07 08:48:12;;;;;;;10.50;4.20;;;;;;;-1.90;73.87;99727.38;103503;1301;24335;-26
2022/01/07 08:50:37;;;;;;;14.70;4.80;;;;;;;-1.83;74.03;99729.71;103532;1300;24582;-25
2022/01/07 08:53:03;;;;;;;8.40;3.30;;;;;;;-1.94;73.76;99729.73;103524;1301;24180;-28
2022/01/07 08:55:29;;;;;;;16.60;4.00;;;;;;;-2.06;72.67;99729.24;103531;1302;24224;-25
2022/01/07 08:57:56;;;;;;;11.20;3.60;;;;;;;-2.11;72.74;99723.41;103614;1300;24366;-28
2022/01/07 09:00:24;;;;;;;5.90;3.10;;;;;;;-2.01;71.86;99726.38;103579;1300;22726;-29
2022/01/07 09:02:50;;;;;;;13.40;4.80;;;;;;;-1.96;71.57;99724.10;103556;1302;22641;-29
2022/01/07 09:05:15;;;;;;;16.50;7.10;;;;;;;-2.10;73.29;99729.70;103618;1300;23212;-29
2022/01/07 09:07:41;;;;;;;14.50;4.00;;;;;;;-2.02;73.12;99730.20;103589;1302;24444;-29
2022/01/07 09:10:08;;;;;;;14.70;4.90;;;;;;;-2.09;72.91;99726.98;103575;1302;24322;-24
2022/01/07 09:12:34;;;;;;;25.40;4.80;;;;;;;-2.22;74.06;99728.98;103512;1301;24188;-29
2022/01/07 09:15:00;;;;;;;7.60;4.00;;;;;;;-2.27;74.71;99729.14;103504;1300;23984;-25
2022/01/07 09:17:26;;;;;;;13.80;5.60;;;;;;;-2.16;74.29;99736.08;103391;1300;24134;-25
2022/01/07 09:19:52;;;;;;;21.40;4.80;;;;;;;-2.21;74.19;99728.34;103557;1302;24230;-25
2022/01/07 09:22:18;;;;;;;13.30;5.00;;;;;;;-2.32;75.12;99724.36;103584;1300;24186;-27
2022/01/07 09:24:44;;;;;;;9.30;4.30;;;;;;;-2.27;74.47;99717.72;103587;1302;24258;-26
2022/01/07 09:27:10;;;;;;;16.10;5.60;;;;;;;-2.33;74.54;99715.30;103537;1302;24266;-30
2022/01/07 09:29:36;;;;;;;17.90;6.80;;;;;;;-2.38;75.83;99712.30;103510;1300;24211;-25
2022/01/07 09:32:02;;;;;;;9.30;4.60;;;;;;;-2.38;75.45;99709.19;103575;1300;24234;-26
2022/01/07 09:34:28;;;;;;;23.90;6.00;;;;;;;-2.26;76.49;99710.63;103285;1302;24219;-29
2022/01/07 09:36:54;;;;;;;17.30;5.30;;;;;;;-2.18;74.92;99709.55;103550;1301;22613;-25
2022/01/07 09:39:20;;;;;;;11.80;4.40;;;;;;;-2.20;74.93;99713.57;103678;1300;22510;-30
2022/01/07 09:41:46;;;;;;;16.60;5.70;;;;;;;-2.25;74.70;99717.59;103577;1300;22508;-29
2022/01/07 09:44:12;;;;;;;28.30;5.60;;;;;;;-2.12;74.40;99718.80;103574;1300;24367;-29
2022/01/07 09:46:39;;;;;;;15.30;4.90;;;;;;;-2.06;72.57;99720.11;103473;1302;24282;-26
2022/01/07 09:49:05;;;;;;;12.90;6.30;;;;;;;-2.15;72.59;99722.66;103522;1301;24185;-30
2022/01/07 09:51:31;;;;;;;11.60;5.20;;;;;;;-2.16;72.83;99723.96;103563;1300;22515;-29
2022/01/07 09:54:01;;;;;;;10.10;5.60;;;;;;;-2.03;72.38;99721.09;103547;1301;24270;-30
2022/01/07 09:56:27;;;;;;;19.10;6.50;;;;;;;-1.86;72.99;99720.25;103526;1300;24185;-26
2022/01/07 09:58:53;;;;;;;18.90;7.10;;;;;;;-1.64;74.09;99722.89;103557;1300;24187;-28
2022/01/07 10:01:20;;;;;;;16.70;7.80;;;;;;;-1.56;74.58;99714.97;103576;1300;24329;-28
2022/01/07 10:03:45;;;;;;;33.00;9.00;;;;;;;-1.37;74.90;99704.95;103555;1302;24520;-25
2022/01/07 10:06:15;;;;;;;19.40;8.30;;;;;;;-1.21;75.44;99703.04;103504;1300;24308;-25
2022/01/07 10:08:41;;;;;;;15.10;7.60;;;;;;;-0.92;75.35;99701.76;103537;1300;24174;-29
2022/01/07 10:11:13;;;;;;;23.10;10.60;;;;;;;-0.59;75.81;99698.86;103556;1301;24408;-26
2022/01/07 10:13:40;;;;;;;19.30;9.50;;;;;;;-0.37;74.64;99702.48;103565;1300;22797;-29
2022/01/07 10:16:12;;;;;;;20.60;8.50;;;;;;;-0.17;75.31;99703.21;103529;1302;24315;-25
2022/01/07 10:18:39;;;;;;;23.20;11.40;;;;;;;-0.15;74.27;99698.80;103583;1300;24322;-27
2022/01/07 10:21:07;;;;;;;18.80;8.00;;;;;;;-0.06;73.48;99698.61;103521;1300;24253;-30
2022/01/07 10:23:33;;;;;;;24.30;8.20;;;;;;;0.20;73.77;99698.30;103497;1300;22843;-30
2022/01/07 10:25:59;;;;;;;16.00;6.90;;;;;;;0.38;72.61;99688.79;103588;1300;22735;-29
2022/01/07 10:28:30;;;;;;;14.60;8.70;;;;;;;0.61;71.77;99685.24;103520;1300;24174;-29
2022/01/07 10:30:56;;;;;;;16.10;8.30;;;;;;;0.69;70.95;99678.30;103470;1300;24232;-29
2022/01/07 10:33:22;;;;;;;18.30;5.80;;;;;;;0.51;69.97;99678.14;103555;1300;24394;-30
2022/01/07 10:35:50;;;;;;;19.40;7.60;;;;;;;0.20;68.89;99681.73;103519;1302;22717;-32
2022/01/07 10:38:19;;;;;;;16.00;7.10;;;;;;;-0.18;70.83;99677.58;103560;1302;24185;-25
2022/01/07 10:40:45;;;;;;;16.30;6.70;;;;;;;-0.21;70.63;99672.69;103546;1300;22509;-26
2022/01/07 10:43:14;;;;;;;17.20;6.50;;;;;;;-0.05;70.43;99672.14;103561;1300;24321;-25
2022/01/07 10:45:43;;;;;;;19.40;7.10;;;;;;;-0.26;71.70;99672.91;103600;1300;22836;-29
2022/01/07 10:48:09;;;;;;;16.20;5.10;;;;;;;0.03;71.53;99669.78;103476;1302;24215;-30
2022/01/07 10:50:39;;;;;;;12.60;6.40;;;;;;;0.31;69.77;99663.95;103544;1302;22515;-29
2022/01/07 10:53:14;;;;;;;17.10;6.20;;;;;;;0.68;70.19;99661.08;103482;1300;24301;-32
2022/01/07 10:55:40;;;;;;;13.60;6.40;;;;;;;1.26;69.26;99662.38;103496;1300;22747;-26
2022/01/07 10:58:06;;;;;;;13.30;6.10;;;;;;;1.61;67.94;99662.04;103591;1300;24255;-27
2022/01/07 11:00:36;;;;;;;20.80;8.70;;;;;;;1.91;66.53;99659.08;103585;1300;24218;-29
2022/01/07 11:03:06;;;;;;;18.70;6.60;;;;;;;2.21;65.40;99655.48;103641;1300;25998;-27
2022/01/07 11:05:33;;;;;;;19.10;8.80;;;;;;;2.66;66.85;99649.69;103619;1300;24189;-25
2022/01/07 11:08:00;;;;;;;13.20;5.00;;;;;;;3.03;64.39;99637.50;103623;1297;24300;-25
2022/01/07 11:10:26;;;;;;;26.90;9.00;;;;;;;3.27;63.47;99636.73;103619;1300;24227;-25
2022/01/07 11:12:52;;;;;;;13.20;5.90;;;;;;;3.49;63.38;99633.66;103646;1300;24150;-27
2022/01/07 11:15:18;;;;;;;15.80;6.90;;;;;;;3.49;62.07;99627.85;103618;1300;24256;-29
2022/01/07 11:17:44;;;;;;;9.30;5.80;;;;;;;3.68;62.77;99622.35;103679;1300;24841;-28
2022/01/07 11:20:12;;;;;;;10.90;6.60;;;;;;;3.68;59.73;99618.06;103567;1300;22510;-25
2022/01/07 11:22:40;;;;;;;11.00;6.10;;;;;;;3.50;61.87;99617.46;103622;1299;22841;-25